Flight Track Log - Related Links

Times and Time Zones

All times are in EDT time to prevent confusion due to time zone crossing. See the VRT51 flight status page for this flight to view local times or setup timezone preferences in your user account.

Time Position Orientation Groundspeed Altitude Reporting Facility
EDT Latitude Longitude Course Direction KTS MPH feet Rate Location/Type
12:02PM 34.3883 -77.8469 North 239 275 3,400  Level Washington Center
12:03PM 34.4592 -77.8614 350° North 239 275 5,100 1,686 Climbing Washington Center
12:04PM 34.5406 -77.8611 360° North 265 305 6,800 2,132 Climbing Washington Center
12:05PM 34.6283 -77.8486 North 294 338 9,400 2,430 Climbing Washington Center
12:06PM 34.7183 -77.8408 North 307 353 11,700 1,846 Climbing Washington Center
12:07PM 34.6614 -78.1142 North  Level Estimated
12:07PM 34.8217 -77.8817 342° North 339 390 13,000  Level Washington Center
12:08PM 34.9169 -77.9222 341° North 339 390 13,000  Level Washington Center
12:09PM 35.0164 -77.9658 340° North 360 414 13,000  Level Washington Center
12:10PM 35.1156 -78.0067 341° North 372 428 13,000  Level Washington Center
12:11PM 35.2169 -78.0481 342° North 377 434 13,000  Level Washington Center
12:12PM 35.3161 -78.0917 340° North 382 440 13,000  Level Washington Center
12:13PM 35.3969 -78.1300 339° North 381 438 13,000  Level Washington Center
12:13PM 35.4156 -78.1331 352° North 382 440 13,000  Level Washington Center
12:14PM 35.5169 -78.1769 341° North 382 440 13,000 -179 Level Washington Center
12:14PM 35.5269 -78.1850 327° Northwest 379 436 12,800 -1,600 Descending Washington Center
12:15PM 35.6139 -78.2186 343° North 382 440 11,400 -1,700 Descending Washington Center
12:15PM 35.6242 -78.2267 327° Northwest 377 434 11,100 -492 Descending Washington Center
12:16PM 35.6831 -78.3000 315° West 356 410 10,900 -295 Descending Washington Center
12:16PM 35.6847 -78.3206 276° West 340 391 10,800 -1,130 Descending Washington Center
12:17PM 35.7181 -78.4114 294° West 285 328 9,600 -1,339 Descending Washington Center
12:18PM 35.7539 -78.4867 300° West 302 348 8,300 -1,574 Descending Washington Center
12:18PM 35.7558 -78.4969 283° West 278 320 8,000 -261 Descending Washington Center
12:19PM 35.7853 -78.5697 297° West 232 267 8,000  Level Washington Center
12:20PM 35.8108 -78.6272 299° West 257 296 8,000  Level Washington Center
12:20PM 35.8167 -78.6478 289° West 232 267 8,000 -1,250 Level Washington Center
12:21PM 35.7919 -78.7186 247° West 237 273 6,500 -1,101 Descending Washington Center
12:22PM 35.7658 -78.7586 231° Southwest 210 242 6,000 -787 Descending Washington Center
12:22PM 35.7528 -78.7786 231° Southwest 226 260 5,700 -1,562 Descending Washington Center
12:23PM 35.7092 -78.8408 229° Southwest 228 262 4,100 -992 Descending Washington Center
12:24PM 35.6950 -78.9067 255° West 186 214 3,700 -843 Descending Washington Center
12:26PM 35.7208 -78.9564 303° West 190 219 2,400 -645 Descending Washington Center
12:27PM 35.7611 -78.9247 33° Northeast 171 197 2,400  Level Washington Center
12:27PM 35.7914 -78.8875 45° Northeast 157 181 2,400 -362 Level Washington Center
12:28PM 35.8172 -78.8581 43° Northeast 126 145 1,700 -639 Descending Washington Center
12:29PM 35.8389 -78.8281 48° Northeast 121 139 1,100 -590 Descending Washington Center
12:31PM 35.8667 -78.7833 North  Level FlightAware Approximate
12:38PM 35.8776 -78.7875 North  Level Estimated
12:39PM 35.8776 -78.7875 North  Level Estimated

Login

Don't have an account? Register now (free) for customized features, flight alerts, and more!